Time;durP1;ratioP1;P1;durP2;ratioP2;P2;SDS_P1;SDS_P2;PMS_P1;PMS_P2;Temp;Humidity;BMP_temperature;BMP_pressure;BME280_temperature;BME280_humidity;BME280_pressure;Samples;Min_cycle;Max_cycle;Signal;HPM_P1;HPM_P2
2022/05/01 00:00:20;;;;;;;15.48;7.65;;;1.80;99.90;2.00;99388.00;;;;5003797;28;82576;-59
2022/05/01 00:02:46;;;;;;;14.35;8.20;;;1.70;99.90;1.90;99389.00;;;;5001285;28;82837;-59
2022/05/01 00:05:12;;;;;;;17.75;8.23;;;1.70;99.90;1.90;99392.00;;;;5004056;28;82274;-59
2022/05/01 00:07:39;;;;;;;15.98;7.57;;;1.60;99.90;1.80;99388.00;;;;5004065;28;82279;-61
2022/05/01 00:10:06;;;;;;;11.82;7.38;;;1.60;99.90;1.70;99392.00;;;;5003303;28;83484;-61
2022/05/01 00:12:33;;;;;;;12.77;7.22;;;1.50;99.90;1.70;99400.00;;;;5006564;28;84469;-61
2022/05/01 00:14:59;;;;;;;18.55;8.10;;;1.40;99.90;1.60;99393.00;;;;4999310;28;81992;-61
2022/05/01 00:17:25;;;;;;;13.77;7.45;;;1.40;99.90;1.50;99402.00;;;;5003442;28;83526;-61
2022/05/01 00:19:51;;;;;;;14.48;7.30;;;1.30;99.90;1.50;99402.00;;;;5002966;28;82442;-60
2022/05/01 00:22:18;;;;;;;14.80;8.13;;;1.20;99.90;1.50;99392.00;;;;5003232;28;82422;-61
2022/05/01 00:24:44;;;;;;;15.82;7.72;;;1.10;99.90;1.40;99392.00;;;;5002689;28;83417;-61
2022/05/01 00:27:10;;;;;;;14.45;8.10;;;1.10;99.90;1.40;99392.00;;;;5003424;28;82054;-61
2022/05/01 00:29:36;;;;;;;15.95;7.78;;;1.00;99.90;1.40;99386.00;;;;5018936;28;82852;-61
2022/05/01 00:32:04;;;;;;;16.92;8.07;;;1.00;99.90;1.40;99392.00;;;;5004264;28;82845;-61
2022/05/01 00:37:15;;;;;;;12.38;7.15;;;1.10;99.90;1.50;99395.00;;;;5003582;28;83529;-59
2022/05/01 00:39:41;;;;;;;10.48;6.35;;;1.20;99.90;1.50;99396.00;;;;5003443;28;82910;-60
2022/05/01 00:42:08;;;;;;;9.75;6.20;;;1.20;99.90;1.50;99398.00;;;;5003351;28;82511;-60
2022/05/01 00:44:34;;;;;;;12.52;7.25;;;1.30;99.90;1.60;99393.00;;;;5003219;28;82075;-60
2022/05/01 00:47:00;;;;;;;10.65;5.97;;;1.30;99.90;1.60;99389.00;;;;5003349;28;82147;-60
2022/05/01 00:49:28;;;;;;;13.25;6.35;;;1.30;99.90;1.60;99391.00;;;;5000879;28;82631;-61
2022/05/01 00:52:09;;;;;;;11.38;5.75;;;1.30;99.90;1.60;99393.00;;;;5002812;28;82350;-60
2022/05/01 00:54:39;;;;;;;10.95;5.72;;;1.30;99.90;1.60;99403.00;;;;5003261;28;82181;-60
2022/05/01 00:57:07;;;;;;;12.40;5.40;;;1.40;99.90;1.70;99403.00;;;;5002751;28;82805;-60
2022/05/01 00:59:37;;;;;;;9.73;5.90;;;1.50;99.90;1.70;99387.00;;;;4999864;28;83680;-61
2022/05/01 01:02:05;;;;;;;11.27;5.63;;;1.50;99.90;1.80;99397.00;;;;5002845;28;83886;-60
2022/05/01 01:04:32;;;;;;;11.73;5.40;;;1.50;99.90;1.80;99397.00;;;;5004094;28;82238;-60
2022/05/01 01:06:58;;;;;;;9.95;4.82;;;1.60;99.90;1.90;99410.00;;;;5002393;28;82231;-60
2022/05/01 01:09:24;;;;;;;10.32;5.30;;;1.70;99.90;1.90;99390.00;;;;5003118;28;82665;-60
2022/05/01 01:12:53;;;;;;;8.80;5.63;;;1.70;99.90;1.90;99401.00;;;;5002544;28;83905;-60
2022/05/01 01:14:37;;;;;;;10.05;5.78;;;1.70;99.90;1.80;99398.00;;;;4991133;28;82397;-60
2022/05/01 01:17:04;;;;;;;9.23;4.95;;;1.60;99.90;1.80;99401.00;;;;5002061;28;82273;-60
2022/05/01 01:19:30;;;;;;;9.98;5.38;;;1.60;99.90;1.80;99390.00;;;;5001864;28;82905;-60
2022/05/01 01:21:56;;;;;;;9.77;5.65;;;1.60;99.90;1.80;99400.00;;;;5001540;28;83632;-60
2022/05/01 01:24:23;;;;;;;10.75;6.03;;;1.60;99.90;1.80;99400.00;;;;5017281;28;83510;-61
2022/05/01 01:26:49;;;;;;;11.32;5.70;;;1.60;99.90;1.80;99394.00;;;;5017321;28;83468;-61
2022/05/01 01:32:01;;;;;;;8.73;5.65;;;1.50;99.90;1.70;99407.00;;;;4999325;28;82266;-60
2022/05/01 01:34:37;;;;;;;10.20;5.07;;;1.40;99.90;1.60;99398.00;;;;5001970;28;82070;-60
2022/05/01 01:37:07;;;;;;;7.65;4.80;;;1.40;99.90;1.60;99396.00;;;;5018084;28;82374;-60
2022/05/01 01:39:34;;;;;;;8.25;5.03;;;1.30;99.90;1.60;99403.00;;;;5000603;28;83643;-60
2022/05/01 01:42:07;;;;;;;8.50;4.75;;;1.30;99.90;1.60;99397.00;;;;5017939;28;83486;-61
2022/05/01 01:44:37;;;;;;;8.88;4.63;;;1.30;99.90;1.60;99398.00;;;;4999679;28;83163;-60
2022/05/01 01:47:05;;;;;;;10.40;4.97;;;1.30;99.90;1.60;99392.00;;;;5002168;28;82475;-60
2022/05/01 01:49:31;;;;;;;9.63;5.13;;;1.30;99.90;1.60;99394.00;;;;5000768;28;83328;-60
2022/05/01 01:51:58;;;;;;;11.40;5.68;;;1.30;99.90;1.50;99396.00;;;;5001997;28;84609;-60
2022/05/01 01:54:24;;;;;;;9.52;4.85;;;1.20;99.90;1.50;99397.00;;;;5002120;28;82001;-60
2022/05/01 01:56:51;;;;;;;8.23;4.78;;;1.30;99.90;1.60;99400.00;;;;5002214;28;81998;-60
2022/05/01 01:59:17;;;;;;;8.15;4.88;;;1.30;99.90;1.60;99390.00;;;;5001889;28;82355;-61
2022/05/01 02:01:43;;;;;;;8.48;4.70;;;1.30;99.90;1.60;99401.00;;;;5002336;28;82531;-61
2022/05/01 02:04:10;;;;;;;7.55;4.35;;;1.30;99.90;1.60;99409.00;;;;5002529;28;81883;-62
2022/05/01 02:06:37;;;;;;;9.27;4.63;;;1.30;99.90;1.60;99402.00;;;;5002430;28;82591;-61
2022/05/01 02:09:06;;;;;;;10.27;4.18;;;1.30;99.90;1.60;99395.00;;;;5002032;28;82394;-61
2022/05/01 02:11:35;;;;;;;11.43;4.90;;;1.30;99.90;1.60;99395.00;;;;5000568;28;83396;-61
2022/05/01 02:14:02;;;;;;;8.25;4.35;;;1.30;99.90;1.60;99398.00;;;;5001390;28;83143;-61
2022/05/01 02:16:29;;;;;;;11.70;4.70;;;1.30;99.90;1.70;99407.00;;;;5001747;28;82226;-62
2022/05/01 02:18:56;;;;;;;11.23;4.55;;;1.30;99.90;1.70;99400.00;;;;5000961;28;82318;-61
2022/05/01 02:21:35;;;;;;;8.10;3.88;;;1.30;99.90;1.70;99392.00;;;;5001332;28;82515;-61
2022/05/01 02:24:12;;;;;;;7.30;3.83;;;1.30;99.90;1.70;99408.00;;;;5001250;28;81882;-61
2022/05/01 02:26:39;;;;;;;8.68;3.80;;;1.40;99.90;1.80;99400.00;;;;5002104;28;82353;-61
2022/05/01 02:29:10;;;;;;;6.93;3.85;;;1.40;99.90;1.80;99400.00;;;;5000360;28;83825;-61
2022/05/01 02:31:38;;;;;;;13.65;4.88;;;1.40;99.90;1.90;99397.00;;;;5001795;28;82044;-61
2022/05/01 02:34:05;;;;;;;9.48;4.18;;;1.50;99.90;1.90;99403.00;;;;5002048;28;82119;-60
2022/05/01 02:36:32;;;;;;;13.85;4.45;;;1.50;99.90;1.90;99400.00;;;;5005104;28;83032;-61
2022/05/01 02:38:58;;;;;;;10.73;4.28;;;1.50;99.90;1.90;99400.00;;;;5004344;28;83432;-56
2022/05/01 02:41:25;;;;;;;9.27;4.03;;;1.50;99.90;2.00;99393.00;;;;5005235;28;83905;-56
2022/05/01 02:43:51;;;;;;;7.35;4.05;;;1.60;99.90;2.00;99397.00;;;;5005219;28;83630;-57
2022/05/01 02:46:17;;;;;;;10.45;4.75;;;1.60;99.90;2.50;99395.00;;;;5005165;28;82249;-57
2022/05/01 02:48:44;;;;;;;11.20;4.18;;;1.90;99.90;3.70;99388.00;;;;5004928;28;82516;-56
2022/05/01 02:51:10;;;;;;;11.10;3.83;;;2.70;99.90;5.30;99396.00;;;;5004315;28;82534;-57
2022/05/01 02:53:38;;;;;;;8.48;4.13;;;4.00;99.90;6.50;99403.00;;;;5004756;28;81887;-58
2022/05/01 02:56:04;;;;;;;12.50;3.83;;;4.90;99.90;7.70;99402.00;;;;5001402;28;82588;-58
2022/05/01 02:58:30;;;;;;;8.60;3.92;;;6.50;99.90;8.80;99402.00;;;;5005494;28;82493;-55
2022/05/01 03:00:57;;;;;;;11.38;3.95;;;7.40;99.90;9.50;99400.00;;;;5005224;28;82292;-53
2022/05/01 03:03:24;;;;;;;9.65;4.07;;;7.90;99.90;10.20;99406.00;;;;5003824;28;82857;-55
2022/05/01 03:05:53;;;;;;;7.35;3.75;;;8.50;99.70;10.60;99405.00;;;;5005380;28;83626;-56
2022/05/01 03:08:21;;;;;;;7.32;4.05;;;8.80;96.80;11.00;99407.00;;;;5004067;28;85025;-58
2022/05/01 03:10:48;;;;;;;11.63;3.60;;;9.00;95.70;11.30;99403.00;;;;5004949;28;84136;-57
2022/05/01 03:13:14;;;;;;;8.70;3.30;;;9.40;93.80;11.60;99410.00;;;;5005195;28;82280;-54
2022/05/01 03:15:41;;;;;;;11.82;4.25;;;9.60;92.00;11.90;99422.00;;;;4998568;28;82465;-56
2022/05/01 03:23:37;;;;;;;11.02;3.92;;;10.40;82.30;12.70;99420.00;;;;5002593;28;82965;-55
2022/05/01 03:26:04;;;;;;;7.75;4.22;;;10.60;81.70;12.80;99419.00;;;;5003924;28;82557;-54
2022/05/01 03:28:30;;;;;;;10.73;3.67;;;10.50;78.50;13.00;99410.00;;;;5003632;28;83524;-53
2022/05/01 03:30:57;;;;;;;13.25;3.58;;;10.80;76.20;13.10;99412.00;;;;5000193;28;84504;-55
2022/05/01 03:33:25;;;;;;;8.00;3.80;;;10.80;76.20;13.20;99416.00;;;;5019676;28;82243;-57
2022/05/01 03:35:51;;;;;;;13.23;4.32;;;10.80;73.80;13.30;99429.00;;;;5003891;28;82304;-55
2022/05/01 03:38:17;;;;;;;11.20;3.70;;;11.10;72.20;13.40;99422.00;;;;5002216;28;82674;-57
2022/05/01 03:40:47;;;;;;;8.43;3.67;;;11.10;70.30;13.50;99419.00;;;;5017429;28;82987;-55
2022/05/01 03:43:16;;;;;;;9.45;3.40;;;11.10;70.50;13.50;99424.00;;;;5002339;28;82177;-57
2022/05/01 03:45:43;;;;;;;7.28;3.70;;;11.10;72.60;13.60;99431.00;;;;5004578;28;82347;-59
2022/05/01 03:48:11;;;;;;;7.07;3.55;;;11.10;69.70;13.70;99426.00;;;;5002469;28;84164;-61
2022/05/01 03:50:38;;;;;;;7.15;3.70;;;11.10;67.90;13.80;99423.00;;;;5003531;28;83768;-61
2022/05/01 03:53:07;;;;;;;6.55;3.58;;;11.30;66.70;13.80;99425.00;;;;5003855;28;83194;-57
2022/05/01 03:55:33;;;;;;;11.73;3.42;;;11.40;66.20;14.00;99425.00;;;;4995570;28;82372;-57
2022/05/01 03:58:00;;;;;;;9.43;3.75;;;11.60;64.40;14.00;99430.00;;;;5004356;28;83882;-58
2022/05/01 04:00:27;;;;;;;9.05;4.07;;;11.50;63.30;14.10;99425.00;;;;5003358;28;83726;-58
2022/05/01 04:02:54;;;;;;;11.98;3.85;;;11.70;62.20;14.10;99425.00;;;;5003220;28;81952;-57
2022/05/01 04:05:20;;;;;;;12.60;4.43;;;11.60;62.20;14.10;99426.00;;;;5004585;28;82349;-58
2022/05/01 04:07:46;;;;;;;10.55;3.92;;;11.70;59.60;14.00;99432.00;;;;5003856;28;83143;-58
2022/05/01 04:10:13;;;;;;;9.57;3.70;;;11.60;59.20;14.10;99423.00;;;;5004136;28;83411;-57
2022/05/01 04:12:43;;;;;;;9.52;3.65;;;11.50;58.80;13.90;99427.00;;;;5004735;28;81991;-58
2022/05/01 04:15:11;;;;;;;10.05;3.53;;;11.30;60.60;13.80;99423.00;;;;5003566;28;82440;-57
2022/05/01 04:17:40;;;;;;;6.53;3.60;;;11.20;59.90;13.70;99418.00;;;;5000573;28;83649;-57
2022/05/01 04:20:13;;;;;;;6.30;3.20;;;11.20;60.20;13.70;99429.00;;;;4996484;28;83206;-57
2022/05/01 04:22:42;;;;;;;14.18;3.00;;;11.20;60.10;13.60;99423.00;;;;5003404;28;82604;-58
2022/05/01 04:25:23;;;;;;;5.78;2.95;;;11.00;60.40;13.80;99431.00;;;;5003242;28;83045;-57
2022/05/01 04:27:57;;;;;;;12.80;3.20;;;11.30;59.70;13.80;99431.00;;;;5001068;28;83044;-57
2022/05/01 04:30:26;;;;;;;7.80;2.88;;;11.30;59.80;13.60;99424.00;;;;4999718;28;82829;-58
2022/05/01 04:32:57;;;;;;;12.25;3.42;;;11.10;62.70;13.60;99427.00;;;;5003047;28;82621;-58
2022/05/01 04:35:37;;;;;;;6.78;2.83;;;11.10;62.10;13.80;99437.00;;;;5002623;28;83900;-55
2022/05/01 04:38:18;;;;;;;7.28;2.90;;;11.20;61.30;13.60;99424.00;;;;5003013;28;82487;-57
2022/05/01 04:40:48;;;;;;;6.60;2.50;;;11.20;59.40;13.50;99432.00;;;;4996451;28;82356;-60
2022/05/01 04:43:17;;;;;;;10.70;2.78;;;11.10;59.60;13.00;99427.00;;;;5002518;28;83651;-60
2022/05/01 04:45:47;;;;;;;7.10;2.90;;;10.50;61.30;13.10;99434.00;;;;5002077;28;82911;-61
2022/05/01 04:48:15;;;;;;;6.25;2.72;;;10.60;62.30;12.80;99432.00;;;;5002655;28;82720;-62
2022/05/01 04:50:41;;;;;;;7.32;2.92;;;10.40;60.20;12.90;99431.00;;;;5002117;28;83396;-58
2022/05/01 04:53:10;;;;;;;8.55;3.40;;;10.50;61.80;12.70;99434.00;;;;5003922;28;82335;-57
2022/05/01 04:55:40;;;;;;;8.18;2.90;;;10.40;61.00;12.40;99428.00;;;;5019310;28;83407;-58
2022/05/01 04:58:09;;;;;;;11.70;2.90;;;10.20;62.70;12.10;99427.00;;;;5005734;28;84586;-55
2022/05/01 05:00:35;;;;;;;6.25;2.63;;;10.20;60.40;12.00;99436.00;;;;5010769;28;81925;-51
2022/05/01 05:03:03;;;;;;;5.65;2.72;;;9.80;63.00;11.70;99425.00;;;;5004019;28;81928;-52
2022/05/01 05:05:31;;;;;;;6.13;2.60;;;9.80;62.90;11.50;99428.00;;;;5003467;28;82516;-49
2022/05/01 05:10:47;;;;;;;6.47;3.05;;;9.90;64.90;10.80;99424.00;;;;5003076;28;83304;-54
2022/05/01 05:13:22;;;;;;;9.05;2.78;;;9.70;64.10;10.60;99433.00;;;;5002744;28;82422;-50
2022/05/01 05:15:50;;;;;;;11.05;3.25;;;9.70;62.50;10.40;99427.00;;;;5002518;28;82825;-51
2022/05/01 05:18:16;;;;;;;10.38;3.38;;;9.70;63.40;10.40;99426.00;;;;5003271;28;82503;-50
2022/05/01 05:20:42;;;;;;;5.85;2.40;;;9.80;62.40;10.30;99426.00;;;;5002466;28;82359;-51
2022/05/01 05:23:09;;;;;;;4.97;2.53;;;9.80;61.40;10.30;99420.00;;;;5002711;28;82050;-51
2022/05/01 05:25:35;;;;;;;3.90;2.30;;;9.70;61.20;10.10;99427.00;;;;5003163;28;82374;-48
2022/05/01 05:28:01;;;;;;;7.85;2.70;;;9.50;62.30;10.00;99432.00;;;;5002851;28;82609;-51
2022/05/01 05:30:27;;;;;;;7.60;2.67;;;9.30;64.30;10.00;99434.00;;;;5002206;28;83363;-49
2022/05/01 05:32:53;;;;;;;5.57;2.53;;;9.40;66.30;10.10;99417.00;;;;5002934;28;82780;-52
2022/05/01 05:35:20;;;;;;;9.73;2.63;;;9.50;64.90;10.20;99423.00;;;;5001823;28;85080;-52
2022/05/01 05:37:46;;;;;;;6.60;2.83;;;9.70;65.50;10.20;99426.00;;;;5018414;28;82704;-50
2022/05/01 05:40:12;;;;;;;8.02;2.92;;;9.70;64.70;10.30;99426.00;;;;5003196;28;81915;-50
2022/05/01 05:42:38;;;;;;;6.85;2.88;;;9.80;64.80;10.30;99424.00;;;;5003104;28;81975;-49
2022/05/01 05:45:05;;;;;;;7.88;3.88;;;9.80;65.00;10.30;99423.00;;;;5003275;28;82461;-50
2022/05/01 05:47:31;;;;;;;7.68;3.28;;;9.80;68.40;10.20;99419.00;;;;5002700;28;82764;-51
2022/05/01 05:49:57;;;;;;;10.43;3.00;;;9.60;68.60;10.30;99419.00;;;;5001629;28;81628;-54
2022/05/01 05:52:24;;;;;;;6.30;2.70;;;9.80;68.10;10.40;99422.00;;;;5003191;28;82959;-54
2022/05/01 05:54:50;;;;;;;5.47;1.67;;;9.80;69.40;10.40;99409.00;;;;5002885;28;83836;-59
2022/05/01 05:57:16;;;;;;;5.32;2.50;;;9.80;62.50;10.30;99419.00;;;;5001804;28;83446;-60
2022/05/01 05:59:42;;;;;;;6.47;2.83;;;9.80;63.60;10.20;99419.00;;;;5002478;28;83317;-60
2022/05/01 06:02:09;;;;;;;8.18;3.00;;;9.50;66.90;10.20;99415.00;;;;5002124;28;82146;-52
2022/05/01 06:04:37;;;;;;;7.63;2.80;;;9.60;73.80;10.30;99420.00;;;;5002369;28;82856;-53
2022/05/01 06:07:03;;;;;;;8.63;2.80;;;9.70;70.50;10.20;99423.00;;;;5002229;28;84040;-52
2022/05/01 06:09:30;;;;;;;6.70;2.58;;;9.60;71.70;10.20;99419.00;;;;5004943;28;83521;-55
2022/05/01 06:11:56;;;;;;;7.30;2.88;;;9.70;72.50;10.40;99416.00;;;;5024368;28;82305;-55
2022/05/01 06:14:23;;;;;;;5.93;2.45;;;9.80;75.60;10.50;99419.00;;;;5006813;28;82229;-53
2022/05/01 06:16:49;;;;;;;3.83;2.00;;;9.90;72.60;10.60;99416.00;;;;5002702;28;82429;-51
2022/05/01 06:19:15;;;;;;;5.05;2.10;;;9.90;68.50;10.70;99407.00;;;;5003402;28;82270;-55
2022/05/01 06:21:41;;;;;;;6.20;2.30;;;10.10;66.90;10.80;99412.00;;;;5018328;28;83239;-55
2022/05/01 06:24:08;;;;;;;5.05;2.00;;;10.20;67.80;10.80;99411.00;;;;5002163;28;83026;-54
2022/05/01 06:26:34;;;;;;;2.35;1.73;;;10.20;67.30;10.60;99410.00;;;;5002823;28;82896;-55
2022/05/01 06:29:01;;;;;;;4.45;1.63;;;9.90;66.70;10.30;99407.00;;;;5002769;28;82717;-54
2022/05/01 06:31:29;;;;;;;4.68;1.95;;;9.60;64.80;10.40;99403.00;;;;5002921;28;82318;-54
2022/05/01 06:33:55;;;;;;;2.78;1.55;;;9.70;68.50;10.40;99411.00;;;;5001954;28;82350;-53
2022/05/01 06:36:22;;;;;;;3.55;1.58;;;9.70;66.50;10.40;99408.00;;;;5001389;28;82735;-54
2022/05/01 06:38:48;;;;;;;3.63;1.60;;;9.70;65.90;10.40;99410.00;;;;5002548;28;83887;-56
2022/05/01 06:41:15;;;;;;;3.80;1.60;;;9.60;64.60;10.40;99406.00;;;;5018620;28;82137;-57
2022/05/01 06:43:41;;;;;;;4.22;1.65;;;9.70;67.70;10.60;99406.00;;;;5003142;28;83714;-58
2022/05/01 06:46:07;;;;;;;7.45;2.00;;;9.90;66.50;10.70;99405.00;;;;5002639;28;82949;-57
2022/05/01 06:48:33;;;;;;;5.53;1.80;;;10.00;63.90;10.80;99393.00;;;;5007880;28;83350;-54
2022/05/01 06:51:00;;;;;;;5.63;1.75;;;10.20;63.50;10.90;99400.00;;;;5002196;28;82503;-53
2022/05/01 06:53:26;;;;;;;5.80;1.70;;;10.20;62.30;10.60;99416.00;;;;5002752;28;83173;-50
2022/05/01 06:55:55;;;;;;;3.80;1.52;;;9.90;63.30;10.10;99389.00;;;;5005998;28;83867;-53
2022/05/01 06:58:21;;;;;;;2.97;1.40;;;9.50;63.30;10.00;99402.00;;;;5004562;28;82195;-56
2022/05/01 07:00:49;;;;;;;4.80;1.60;;;9.30;64.30;10.20;99383.00;;;;5004812;28;82342;-52
2022/05/01 07:03:15;;;;;;;2.88;1.65;;;9.40;66.80;10.30;99389.00;;;;5005324;28;82479;-55
2022/05/01 07:05:41;;;;;;;3.15;1.75;;;9.50;66.40;10.60;99391.00;;;;5007958;28;82788;-51
2022/05/01 07:08:07;;;;;;;4.63;1.70;;;9.80;68.40;10.90;99383.00;;;;5005156;28;82413;-53
2022/05/01 07:10:33;;;;;;;8.70;1.90;;;10.10;68.50;11.10;99391.00;;;;5005268;28;82946;-52
2022/05/01 07:13:00;;;;;;;3.53;1.83;;;10.40;63.00;11.20;99401.00;;;;5005310;28;82478;-54
2022/05/01 07:15:26;;;;;;;3.95;2.20;;;10.40;60.10;11.00;99374.00;;;;5005033;28;84452;-54
2022/05/01 07:17:52;;;;;;;6.35;1.75;;;10.30;63.30;11.20;99381.00;;;;5005197;28;81937;-53
2022/05/01 07:20:18;;;;;;;3.72;2.10;;;10.50;63.10;11.30;99362.00;;;;5003877;28;81905;-53
2022/05/01 07:22:44;;;;;;;6.20;1.80;;;10.50;60.60;11.50;99371.00;;;;5004623;28;82061;-48
2022/05/01 07:25:10;;;;;;;5.55;2.55;;;10.70;61.20;11.70;99374.00;;;;5004013;28;83580;-53
2022/05/01 07:27:37;;;;;;;4.22;1.98;;;10.90;62.40;11.80;99377.00;;;;5004925;28;83353;-51
2022/05/01 07:30:05;;;;;;;5.55;2.10;;;11.00;58.50;11.80;99384.00;;;;5004638;28;82535;-52
2022/05/01 07:32:31;;;;;;;4.00;1.70;;;11.00;57.60;11.70;99379.00;;;;5004729;28;82856;-51
2022/05/01 07:34:57;;;;;;;3.10;1.35;;;10.90;57.20;11.60;99382.00;;;;5004588;28;83521;-51
2022/05/01 07:37:26;;;;;;;5.03;1.67;;;10.70;57.60;11.30;99384.00;;;;5003466;28;85599;-55
2022/05/01 07:39:54;;;;;;;5.18;2.10;;;10.30;56.90;11.30;99379.00;;;;5004964;28;81852;-54
2022/05/01 07:42:25;;;;;;;6.80;1.50;;;10.40;57.70;10.80;99377.00;;;;5004650;28;82501;-52
2022/05/01 07:44:51;;;;;;;4.18;1.75;;;10.00;58.50;10.90;99369.00;;;;5020767;28;82759;-56
2022/05/01 07:47:18;;;;;;;5.57;1.70;;;10.00;57.70;11.00;99372.00;;;;5004428;28;83347;-55
2022/05/01 07:49:44;;;;;;;4.22;1.50;;;10.10;57.80;11.10;99376.00;;;;5004199;28;82330;-49
2022/05/01 07:52:10;;;;;;;3.38;1.50;;;10.20;58.10;11.10;99376.00;;;;5004994;28;82286;-54
2022/05/01 07:54:36;;;;;;;6.20;1.90;;;10.20;57.50;11.10;99361.00;;;;5004576;28;82558;-51
2022/05/01 07:57:03;;;;;;;3.70;1.50;;;10.30;56.60;11.30;99367.00;;;;5004108;28;82642;-54
2022/05/01 07:59:29;;;;;;;5.03;1.65;;;10.50;56.70;11.10;99371.00;;;;5004598;28;82985;-53
2022/05/01 08:01:55;;;;;;;3.42;1.58;;;10.20;57.20;10.90;99353.00;;;;5004144;28;82386;-50
2022/05/01 08:04:28;;;;;;;7.20;1.77;;;10.00;58.50;10.90;99356.00;;;;5003715;28;83983;-57
2022/05/01 08:07:00;;;;;;;7.70;1.70;;;10.00;60.00;11.20;99348.00;;;;5004276;28;83293;-57
2022/05/01 08:09:28;;;;;;;3.92;1.50;;;10.30;58.80;11.30;99349.00;;;;5004628;28;81975;-54
2022/05/01 08:11:55;;;;;;;7.97;1.90;;;10.50;56.80;11.70;99345.00;;;;5008441;28;82533;-57
2022/05/01 08:14:22;;;;;;;5.90;2.30;;;10.80;58.90;12.10;99347.00;;;;5003990;28;82388;-57
2022/05/01 08:16:50;;;;;;;3.47;2.00;;;11.30;56.30;12.30;99353.00;;;;5018844;28;82352;-55
2022/05/01 08:22:04;;;;;;;10.32;2.00;;;11.60;59.10;12.70;99353.00;;;;5003039;28;83747;-54
2022/05/01 08:24:32;;;;;;;7.95;1.98;;;11.80;56.10;12.40;99332.00;;;;5002251;28;83838;-59
2022/05/01 08:27:05;;;;;;;3.35;1.60;;;11.50;52.40;11.80;99327.00;;;;5003547;28;83128;-57
2022/05/01 08:29:33;;;;;;;4.25;1.85;;;10.90;53.90;11.60;99324.00;;;;5003473;28;81984;-57
2022/05/01 08:32:00;;;;;;;7.43;1.92;;;10.80;54.80;11.90;99331.00;;;;5002072;28;82359;-58
2022/05/01 08:34:27;;;;;;;4.90;1.92;;;11.00;56.50;12.30;99324.00;;;;5003944;28;82345;-58
2022/05/01 08:36:53;;;;;;;5.80;2.30;;;11.30;53.00;12.50;99317.00;;;;5002420;28;82463;-57
2022/05/01 08:39:19;;;;;;;3.55;1.90;;;11.50;55.40;12.70;99306.00;;;;5003477;28;81901;-52
2022/05/01 08:41:45;;;;;;;3.65;2.38;;;11.70;54.40;12.80;99307.00;;;;5004273;28;82286;-56
2022/05/01 08:44:16;;;;;;;10.57;2.22;;;11.80;53.50;12.70;99312.00;;;;5003363;28;82260;-57
2022/05/01 08:47:14;;;;;;;6.90;2.13;;;11.80;54.70;12.70;99300.00;;;;5003886;28;82505;-57
2022/05/01 08:49:43;;;;;;;5.90;1.73;;;11.80;53.60;12.80;99299.00;;;;5001825;28;83265;-56
2022/05/01 08:52:09;;;;;;;4.07;1.88;;;12.00;52.90;12.90;99308.00;;;;5002816;28;82480;-58
2022/05/01 08:54:37;;;;;;;9.25;2.67;;;12.00;49.30;13.10;99289.00;;;;5019089;28;82531;-56
2022/05/01 08:57:03;;;;;;;4.30;2.20;;;12.20;52.90;13.30;99295.00;;;;5019051;28;82428;-57
2022/05/01 08:59:31;;;;;;;4.82;1.92;;;12.20;49.30;13.40;99313.00;;;;5016576;28;82263;-58
2022/05/01 09:01:58;;;;;;;4.43;2.42;;;12.40;49.00;13.10;99295.00;;;;5003777;28;82509;-59
2022/05/01 09:04:25;;;;;;;6.72;2.40;;;12.10;50.20;12.50;99295.00;;;;5003481;28;82562;-59
2022/05/01 09:06:53;;;;;;;3.85;1.70;;;11.50;48.90;11.90;99306.00;;;;5003898;28;81563;-59
2022/05/01 09:09:22;;;;;;;4.85;2.25;;;10.90;49.90;11.70;99278.00;;;;5002712;28;81934;-58
2022/05/01 09:14:37;;;;;;;3.67;1.50;;;10.70;51.70;11.50;99296.00;;;;4999690;28;83015;-58
2022/05/01 09:17:17;;;;;;;3.55;2.08;;;10.60;51.00;11.80;99283.00;;;;5003313;28;83172;-60
2022/05/01 09:19:48;;;;;;;3.90;2.00;;;10.80;51.60;12.10;99274.00;;;;5027113;28;82451;-58
2022/05/01 09:22:19;;;;;;;5.38;2.00;;;11.20;51.70;12.40;99270.00;;;;5003039;28;82282;-59
2022/05/01 09:24:45;;;;;;;6.03;2.03;;;11.40;50.20;12.30;99266.00;;;;5002560;28;83598;-60
2022/05/01 09:27:25;;;;;;;3.90;2.00;;;11.30;51.00;12.40;99260.00;;;;5002208;28;83816;-58
2022/05/01 09:30:16;;;;;;;3.90;1.98;;;11.50;50.00;12.70;99272.00;;;;4998766;28;82658;-58
2022/05/01 09:32:44;;;;;;;5.82;1.92;;;11.80;48.80;12.90;99250.00;;;;5000059;28;82595;-58
2022/05/01 09:35:31;;;;;;;7.20;2.00;;;11.90;50.00;12.70;99273.00;;;;4999897;28;82678;-58
2022/05/01 09:38:29;;;;;;;7.03;2.20;;;11.80;47.90;12.50;99272.00;;;;4999784;28;83465;-56
2022/05/01 09:40:58;;;;;;;2.95;1.80;;;11.50;48.50;12.50;99263.00;;;;4977437;28;83105;-59
2022/05/01 09:43:45;;;;;;;4.22;2.00;;;11.60;46.10;12.60;99251.00;;;;5000919;28;83285;-59
2022/05/01 09:46:20;;;;;;;7.28;2.20;;;11.70;46.60;12.70;99259.00;;;;4999723;28;82671;-58
2022/05/01 09:49:08;;;;;;;6.18;2.05;;;11.70;48.40;12.80;99252.00;;;;5002579;28;81871;-57
2022/05/01 09:51:38;;;;;;;7.85;2.00;;;11.80;47.80;13.00;99260.00;;;;5002551;28;82050;-57
2022/05/01 09:54:06;;;;;;;;;;;12.10;47.80;12.90;99251.00;;;;5003075;28;83178;-58
2022/05/01 09:56:52;;;;;;;4.97;2.03;;;12.10;45.30;12.90;99249.00;;;;5003492;28;82017;-57
2022/05/01 09:59:23;;;;;;;6.35;2.05;;;12.00;47.60;12.90;99250.00;;;;5018429;28;83390;-57
2022/05/01 10:02:02;;;;;;;4.20;2.35;;;12.00;45.30;12.70;99250.00;;;;5018374;28;82462;-57
2022/05/01 10:04:36;;;;;;;3.95;2.15;;;11.80;44.20;12.80;99243.00;;;;5006674;28;83267;-58
2022/05/01 10:07:05;;;;;;;4.20;1.73;;;12.00;45.80;13.00;99235.00;;;;5015659;28;83648;-57
2022/05/01 10:09:34;;;;;;;7.55;2.20;;;12.10;44.50;13.10;99238.00;;;;5001573;28;86555;-55
2022/05/01 10:12:07;;;;;;;11.13;2.88;;;12.10;44.50;13.20;99236.00;;;;5024520;28;81992;-59
2022/05/01 10:14:34;;;;;;;4.50;1.92;;;12.30;45.70;13.30;99230.00;;;;5002283;28;83435;-58
2022/05/01 10:17:01;;;;;;;3.20;2.33;;;12.30;42.60;13.30;99223.00;;;;5002616;28;82397;-59
2022/05/01 10:19:28;;;;;;;8.38;2.35;;;12.30;42.40;13.50;99219.00;;;;5010751;28;83128;-60
2022/05/01 10:21:59;;;;;;;3.45;1.83;;;12.50;43.00;13.70;99223.00;;;;5002137;28;82207;-57
2022/05/01 10:24:26;;;;;;;9.43;2.53;;;12.80;42.70;14.00;99227.00;;;;5000698;28;82271;-58
2022/05/01 10:27:29;;;;;;;3.08;1.88;;;13.10;43.10;14.30;99205.00;;;;5001467;28;82597;-57
2022/05/01 10:33:02;;;;;;;5.05;1.90;;;13.20;42.50;14.00;99211.00;;;;4945185;28;83262;-59
2022/05/01 10:36:21;;;;;;;4.60;2.13;;;13.00;42.70;13.90;99213.00;;;;4986585;28;83429;-57
2022/05/01 10:39:02;;;;;;;3.90;2.25;;;12.80;42.70;13.90;99195.00;;;;4985549;28;81932;-60
2022/05/01 10:41:31;;;;;;;6.82;2.20;;;12.90;42.50;14.20;99206.00;;;;5002859;28;82215;-57
2022/05/01 10:44:00;;;;;;;4.00;1.98;;;13.10;41.50;14.00;99195.00;;;;5002096;28;82528;-59
2022/05/01 10:46:29;;;;;;;5.25;2.25;;;12.90;39.40;14.10;99189.00;;;;5002226;28;82211;-59
2022/05/01 10:49:00;;;;;;;13.30;3.40;;;13.00;42.10;14.30;99192.00;;;;5000727;28;82955;-57
2022/05/01 10:51:38;;;;;;;7.20;2.00;;;13.20;41.30;14.60;99195.00;;;;5002343;28;81735;-57
2022/05/01 10:54:10;;;;;;;4.82;2.72;;;13.60;40.80;14.90;99188.00;;;;4984509;28;82185;-52
2022/05/01 10:56:38;;;;;;;4.55;2.50;;;13.80;41.20;14.70;99180.00;;;;5004228;28;83451;-54
2022/05/01 10:59:29;;;;;;;4.20;2.35;;;13.60;39.40;14.50;99185.00;;;;5005369;28;83390;-54
2022/05/01 11:02:20;;;;;;;3.42;2.00;;;13.40;40.90;14.70;99174.00;;;;5005002;28;83793;-54
2022/05/01 11:04:46;;;;;;;5.95;2.33;;;13.60;42.00;15.10;99175.00;;;;4998915;28;81991;-50
2022/05/01 11:07:14;;;;;;;5.40;2.38;;;14.00;44.30;15.10;99172.00;;;;5017932;28;83344;-55
2022/05/01 11:09:46;;;;;;;6.70;2.78;;;14.00;40.60;14.80;99165.00;;;;5005636;28;82683;-54
2022/05/01 11:12:15;;;;;;;5.18;1.98;;;13.90;41.00;14.80;99162.00;;;;5017681;28;82528;-53
2022/05/01 11:15:00;;;;;;;6.53;2.10;;;13.90;40.80;14.80;99165.00;;;;4993203;28;82613;-55
2022/05/01 11:17:36;;;;;;;4.15;2.00;;;13.70;40.20;14.60;99165.00;;;;4994064;28;84005;-53
2022/05/01 11:20:08;;;;;;;5.40;2.10;;;13.50;38.60;13.80;99169.00;;;;5002543;28;82543;-52
2022/05/01 11:22:35;;;;;;;4.35;1.92;;;12.80;39.60;13.20;99172.00;;;;5020565;28;82309;-51
2022/05/01 11:25:02;;;;;;;4.15;1.95;;;12.30;41.50;13.10;99171.00;;;;5002129;28;84689;-54
2022/05/01 11:27:50;;;;;;;5.00;2.10;;;12.10;41.70;12.80;99168.00;;;;5018349;28;82876;-56